Time;durP1;ratioP1;P1;durP2;ratioP2;P2;SDS_P1;SDS_P2;PMS_P1;PMS_P2;Temp;Humidity;BMP_temperature;BMP_pressure;BME280_temperature;BME280_humidity;BME280_pressure;Samples;Min_cycle;Max_cycle;Signal;HPM_P1;HPM_P2
2024/03/20 00:02:26;;;;;;;8.53;5.42;;;;;;;21.04;42.85;101445.23;2384415;74;51834;-81
2024/03/20 00:05:28;;;;;;;9.10;5.10;;;;;;;21.04;42.86;101445.23;2383837;73;50506;-81
2024/03/20 00:08:30;;;;;;;10.48;5.40;;;;;;;21.03;42.88;101445.75;2383593;74;50731;-80
2024/03/20 00:11:32;;;;;;;7.97;4.83;;;;;;;21.04;42.87;101453.30;2383453;74;51556;-81
2024/03/20 00:14:34;;;;;;;11.95;5.35;;;;;;;21.02;42.87;101448.13;2345584;74;51605;-80
2024/03/20 00:17:37;;;;;;;9.00;4.75;;;;;;;21.01;42.81;101447.77;2383406;74;51502;-81
2024/03/20 00:20:39;;;;;;;12.33;4.95;;;;;;;21.01;42.85;101447.77;2383565;74;50914;-80
2024/03/20 00:23:41;;;;;;;12.10;5.22;;;;;;;21.02;42.81;101445.95;2345586;74;50116;-81
2024/03/20 00:26:43;;;;;;;7.12;4.83;;;;;;;21.01;42.86;101446.42;2383439;74;50618;-81
2024/03/20 00:29:45;;;;;;;8.38;4.97;;;;;;;21.01;42.85;101440.22;2383526;74;50488;-81
2024/03/20 00:32:48;;;;;;;9.38;4.87;;;;;;;20.99;42.81;101436.38;2345833;73;50679;-80
2024/03/20 00:35:50;;;;;;;8.38;4.90;;;;;;;20.98;42.82;101436.03;2383385;74;50921;-80
2024/03/20 00:38:52;;;;;;;9.40;5.17;;;;;;;20.99;42.82;101428.79;2345569;74;50055;-80
2024/03/20 00:41:54;;;;;;;9.23;4.85;;;;;;;20.99;42.81;101433.69;2383365;74;50657;-80
2024/03/20 00:44:57;;;;;;;10.13;5.03;;;;;;;20.99;42.80;101424.27;2383447;73;50735;-82
2024/03/20 00:47:59;;;;;;;7.75;4.85;;;;;;;20.98;42.79;101422.58;2346054;74;50143;-80
2024/03/20 00:51:01;;;;;;;7.95;4.75;;;;;;;20.97;42.81;101420.92;2383386;74;51517;-81
2024/03/20 00:54:03;;;;;;;9.93;5.08;;;;;;;20.97;42.77;101414.19;2383665;73;51456;-80
2024/03/20 00:57:06;;;;;;;8.23;4.72;;;;;;;20.98;42.74;101410.98;2346248;74;50881;-80
2024/03/20 01:00:08;;;;;;;8.98;4.55;;;;;;;20.97;42.71;101413.36;2383690;74;51717;-81
2024/03/20 01:03:11;;;;;;;7.65;4.72;;;;;;;20.97;42.70;101418.74;2371120;73;51674;-81
2024/03/20 01:06:13;;;;;;;9.90;5.20;;;;;;;20.96;42.69;101413.88;2423664;73;51417;-81
2024/03/20 01:09:15;;;;;;;7.08;4.85;;;;;;;20.95;42.72;101418.91;2423472;73;50237;-81
2024/03/20 01:12:18;;;;;;;6.95;4.70;;;;;;;20.96;42.73;101421.09;2386485;73;49514;-81
2024/03/20 01:15:20;;;;;;;10.20;4.15;;;;;;;20.95;42.73;101417.56;2385133;73;50390;-80
2024/03/20 01:18:22;;;;;;;9.18;4.40;;;;;;;20.95;42.77;101408.15;2385291;73;50429;-80
2024/03/20 01:21:24;;;;;;;8.65;4.33;;;;;;;20.95;42.79;101408.66;2421952;73;50924;-80
2024/03/20 01:24:27;;;;;;;10.40;4.50;;;;;;;20.94;42.81;101403.80;2385139;73;52408;-80
2024/03/20 01:27:29;;;;;;;7.70;4.45;;;;;;;20.93;42.85;101400.76;2384827;73;49420;-79
2024/03/20 01:30:31;;;;;;;9.88;4.62;;;;;;;20.94;42.84;101402.45;2421983;73;50402;-80
2024/03/20 01:33:33;;;;;;;8.53;4.33;;;;;;;20.93;42.85;101400.76;2421914;73;50270;-79
2024/03/20 01:36:35;;;;;;;8.53;4.70;;;;;;;20.92;42.80;101396.41;2384858;73;49212;-80
2024/03/20 01:39:38;;;;;;;7.28;4.60;;;;;;;20.94;42.67;101402.97;2421988;72;50603;-80
2024/03/20 01:42:40;;;;;;;7.35;4.62;;;;;;;20.92;42.67;101396.41;2384931;73;51536;-81
2024/03/20 01:45:42;;;;;;;7.55;4.60;;;;;;;20.92;42.66;101395.06;2421690;73;51458;-80
2024/03/20 01:48:44;;;;;;;8.58;4.55;;;;;;;20.93;42.60;101401.27;2421655;73;51496;-79
2024/03/20 01:51:46;;;;;;;8.33;4.97;;;;;;;20.92;42.62;101406.34;2384709;73;49620;-80
2024/03/20 01:54:49;;;;;;;7.92;4.28;;;;;;;20.91;42.70;101405.51;2385098;73;50235;-79
2024/03/20 01:57:51;;;;;;;7.15;4.62;;;;;;;20.92;42.78;101406.34;2421578;73;50686;-79
2024/03/20 02:00:53;;;;;;;7.20;4.30;;;;;;;20.90;42.76;101397.09;2384658;73;51536;-80
2024/03/20 02:03:57;;;;;;;7.53;4.03;;;;;;;20.91;42.76;101399.27;2421339;73;51466;-80
2024/03/20 02:07:00;;;;;;;6.67;3.90;;;;;;;20.90;42.75;101401.12;2385025;73;51085;-79
2024/03/20 02:10:02;;;;;;;6.55;4.58;;;;;;;20.90;42.69;101402.47;2422013;73;51462;-79
2024/03/20 02:13:05;;;;;;;7.40;4.37;;;;;;;20.90;42.62;101397.09;2422587;73;50696;-80
2024/03/20 02:16:07;;;;;;;7.28;4.78;;;;;;;20.89;42.61;101399.47;2385328;73;51729;-79
2024/03/20 02:19:09;;;;;;;7.05;4.50;;;;;;;20.89;42.47;101398.12;2422436;73;50363;-80
2024/03/20 02:22:12;;;;;;;7.17;4.08;;;;;;;20.87;42.49;101394.25;2422098;72;50685;-81
2024/03/20 02:25:14;;;;;;;8.73;4.70;;;;;;;20.87;42.50;101401.49;2384950;73;51111;-80
2024/03/20 02:28:16;;;;;;;8.85;4.35;;;;;;;20.87;42.48;101400.98;2422002;73;51404;-80
2024/03/20 02:31:18;;;;;;;7.08;4.62;;;;;;;20.87;42.50;101402.33;2385235;73;51510;-80
2024/03/20 02:34:20;;;;;;;6.47;4.37;;;;;;;20.86;42.40;101400.66;2385286;73;50750;-80
2024/03/20 02:37:23;;;;;;;9.50;4.28;;;;;;;20.84;42.49;101402.69;2421804;73;51495;-80
2024/03/20 02:40:26;;;;;;;6.35;4.37;;;;;;;20.84;42.55;101399.17;2358405;73;49577;-80
2024/03/20 02:43:28;;;;;;;8.05;4.10;;;;;;;20.84;42.59;101397.83;2385652;73;51318;-80
2024/03/20 02:46:31;;;;;;;7.35;4.67;;;;;;;20.84;42.63;101398.66;2421683;73;51481;-80
2024/03/20 02:49:33;;;;;;;6.67;4.30;;;;;;;20.84;42.58;101400.00;2331368;73;50988;-80
2024/03/20 02:52:35;;;;;;;6.40;4.40;;;;;;;20.83;42.67;101396.99;2421927;72;50587;-79
2024/03/20 02:55:39;;;;;;;6.53;4.35;;;;;;;20.84;42.73;101396.48;2388010;73;50487;-79
2024/03/20 02:59:13;;;;;;;7.45;3.95;;;;;;;20.85;42.70;101402.17;2390550;73;49988;-80
2024/03/20 03:02:20;;;;;;;7.25;4.17;;;;;;;20.85;42.68;101404.34;2427089;73;21717;-82
2024/03/20 03:05:36;;;;;;;6.72;4.35;;;;;;;20.84;42.60;101411.27;2426030;73;22273;-80
2024/03/20 03:08:45;;;;;;;;;;;;;;;20.82;42.59;101405.23;2286631;77;23005;-81
2024/03/20 03:12:16;;;;;;;5.10;3.67;;;;;;;20.82;42.61;101402.54;2284431;77;21998;-80
2024/03/20 03:15:31;;;;;;;5.35;3.75;;;;;;;20.82;42.54;101401.20;2288598;76;22177;-80
2024/03/20 03:18:35;;;;;;;5.65;3.58;;;;;;;20.81;42.55;101406.26;2287458;77;50629;-80
2024/03/20 03:21:37;;;;;;;7.17;4.30;;;;;;;20.80;42.51;101400.53;2286586;77;50681;-79
2024/03/20 03:24:39;;;;;;;7.17;4.20;;;;;;;20.80;42.53;101414.81;2286728;77;49902;-80
2024/03/20 03:27:42;;;;;;;6.40;4.42;;;;;;;20.80;42.64;101406.74;2287073;77;50809;-79
2024/03/20 03:30:44;;;;;;;5.60;4.50;;;;;;;20.79;42.63;101406.42;2286452;77;50292;-80
2024/03/20 03:33:47;;;;;;;5.55;3.83;;;;;;;20.80;42.63;101412.63;2286684;77;50683;-81
2024/03/20 03:36:49;;;;;;;4.87;3.92;;;;;;;20.80;42.73;101416.67;2286636;77;51077;-81
2024/03/20 03:39:52;;;;;;;5.28;4.00;;;;;;;20.79;42.62;101404.25;2286944;76;51664;-80
2024/03/20 03:42:54;;;;;;;5.47;4.20;;;;;;;20.79;42.58;101403.73;2287354;77;50767;-81
2024/03/20 03:45:57;;;;;;;6.62;4.33;;;;;;;20.79;42.55;101401.56;2365595;73;51459;-81
2024/03/20 03:48:59;;;;;;;5.58;3.95;;;;;;;20.78;42.58;101403.42;2387041;73;51717;-80
2024/03/20 03:52:01;;;;;;;7.10;4.35;;;;;;;20.79;42.59;101406.94;2386897;73;50677;-80
2024/03/20 03:55:04;;;;;;;5.20;4.10;;;;;;;20.79;42.61;101412.31;2423742;73;50924;-81
2024/03/20 03:58:06;;;;;;;6.08;3.80;;;;;;;20.78;42.52;101416.00;2387765;73;50799;-80
2024/03/20 04:01:08;;;;;;;6.55;4.40;;;;;;;20.78;42.59;101409.28;2425241;73;50750;-82
2024/03/20 04:04:11;;;;;;;5.95;4.12;;;;;;;20.78;42.53;101409.28;2389572;73;50086;-80
2024/03/20 04:07:13;;;;;;;5.60;3.95;;;;;;;20.78;42.63;101410.63;2389682;73;50743;-81
2024/03/20 04:10:15;;;;;;;6.90;4.20;;;;;;;20.77;42.67;101415.69;2424602;73;50563;-81
2024/03/20 04:13:17;;;;;;;6.40;3.72;;;;;;;20.76;42.71;101406.79;2386804;73;50875;-81
2024/03/20 04:16:19;;;;;;;6.37;4.35;;;;;;;20.76;42.71;101401.92;2423241;73;51026;-80
2024/03/20 04:19:22;;;;;;;6.65;3.77;;;;;;;20.76;42.69;101408.13;2423322;73;51511;-80
2024/03/20 04:22:24;;;;;;;7.15;4.53;;;;;;;20.77;42.72;101403.59;2386667;73;51798;-80
2024/03/20 04:25:28;;;;;;;7.50;3.85;;;;;;;20.76;42.76;101404.09;2423362;72;50639;-81
2024/03/20 04:28:30;;;;;;;6.10;4.00;;;;;;;20.76;42.74;101401.92;2387541;73;22232;-81
2024/03/20 04:31:32;;;;;;;5.95;4.47;;;;;;;20.75;42.71;101398.38;2423734;72;50754;-80
2024/03/20 04:34:36;;;;;;;5.67;3.75;;;;;;;20.76;42.62;101396.03;2423604;73;50526;-81
2024/03/20 04:37:39;;;;;;;7.75;4.30;;;;;;;20.76;42.61;101401.92;2386824;73;49601;-79
2024/03/20 04:40:41;;;;;;;7.12;4.35;;;;;;;20.76;42.65;101404.61;2423468;73;50828;-80
2024/03/20 04:43:43;;;;;;;7.05;4.10;;;;;;;20.75;42.65;101397.55;2423402;73;50817;-80
2024/03/20 04:46:45;;;;;;;5.65;4.17;;;;;;;20.75;42.55;101398.38;2423282;72;50755;-80
2024/03/20 04:49:47;;;;;;;7.22;4.10;;;;;;;20.74;42.61;101395.87;2423806;72;50140;-80
2024/03/20 04:52:50;;;;;;;5.42;3.92;;;;;;;20.74;42.69;101398.57;2387086;73;49497;-80
2024/03/20 04:55:52;;;;;;;7.03;4.28;;;;;;;20.74;42.68;101394.53;2387109;73;50637;-82
2024/03/20 04:58:54;;;;;;;7.03;4.15;;;;;;;20.74;42.63;101397.22;2423709;73;50829;-81
2024/03/20 05:01:56;;;;;;;6.47;4.28;;;;;;;20.74;42.63;101402.09;2387033;73;50887;-81
2024/03/20 05:04:58;;;;;;;5.95;4.17;;;;;;;20.74;42.61;101399.40;2424040;73;51514;-80
2024/03/20 05:08:01;;;;;;;6.53;3.83;;;;;;;20.74;42.58;101397.22;2424401;73;52491;-80
2024/03/20 05:11:03;;;;;;;6.50;4.30;;;;;;;20.74;42.58;101398.05;2424474;73;50698;-80
2024/03/20 05:14:05;;;;;;;6.00;3.95;;;;;;;20.74;42.50;101402.09;2424923;73;50661;-80
2024/03/20 05:17:07;;;;;;;7.70;4.12;;;;;;;20.74;42.47;101399.40;2387948;71;52302;-80
2024/03/20 05:20:10;;;;;;;8.48;4.30;;;;;;;20.74;42.41;101392.67;2385775;74;50819;-81
2024/03/20 05:23:12;;;;;;;7.10;4.10;;;;;;;20.74;42.41;101400.75;2348517;74;50824;-80
2024/03/20 05:26:16;;;;;;;6.60;4.12;;;;;;;20.73;42.39;101392.84;2348691;74;50095;-80
2024/03/20 05:29:18;;;;;;;7.72;4.05;;;;;;;20.73;42.37;101395.53;2386718;73;51200;-79
2024/03/20 05:32:20;;;;;;;6.33;4.35;;;;;;;20.73;42.39;101406.29;2386080;73;51413;-80
2024/03/20 05:35:23;;;;;;;4.87;3.98;;;;;;;20.73;42.38;101399.56;2386127;74;50722;-80
2024/03/20 05:38:25;;;;;;;5.75;4.35;;;;;;;20.73;42.45;101398.22;2386287;74;50707;-79
2024/03/20 05:41:27;;;;;;;7.00;4.12;;;;;;;20.73;42.58;101402.25;2347820;74;51901;-81
2024/03/20 05:44:29;;;;;;;6.47;4.33;;;;;;;20.72;42.59;101398.73;2383818;73;52171;-83
2024/03/20 05:47:32;;;;;;;9.60;4.53;;;;;;;20.73;42.56;101396.39;2383982;74;50777;-83
2024/03/20 05:50:36;;;;;;;7.42;4.45;;;;;;;20.73;42.73;101396.88;2344855;74;51587;-80
2024/03/20 05:53:38;;;;;;;6.40;4.62;;;;;;;20.73;42.80;101403.12;2382594;74;51543;-82
2024/03/20 05:56:40;;;;;;;6.67;4.37;;;;;;;20.74;42.73;101395.87;2382460;73;50735;-82
2024/03/20 05:59:42;;;;;;;7.17;4.55;;;;;;;20.73;42.71;101395.53;2382281;74;51517;-81
2024/03/20 06:02:45;;;;;;;7.40;4.65;;;;;;;20.74;42.54;101397.22;2382354;74;50757;-81
2024/03/20 06:05:47;;;;;;;9.98;4.62;;;;;;;20.75;42.70;101394.85;2344210;74;51490;-80
2024/03/20 06:08:50;;;;;;;13.35;5.12;;;;;;;20.75;42.81;101400.23;2344345;74;50263;-80
2024/03/20 06:11:52;;;;;;;11.22;4.33;;;;;;;20.76;43.05;101399.23;2382102;74;51487;-80
2024/03/20 06:14:55;;;;;;;6.78;4.10;;;;;;;20.79;43.57;101401.56;2344247;74;49607;-80
2024/03/20 06:17:58;;;;;;;10.70;4.67;;;;;;;20.79;43.58;101409.63;2381965;74;51446;-78
2024/03/20 06:21:00;;;;;;;10.88;4.67;;;;;;;20.79;43.50;101405.08;2345112;74;52299;-81
2024/03/20 06:24:04;;;;;;;14.15;5.12;;;;;;;20.79;43.54;101401.56;2383166;73;51507;-79
2024/03/20 06:27:06;;;;;;;18.50;5.17;;;;;;;20.79;43.50;101409.63;2366218;73;50084;-80
2024/03/20 06:30:12;;;;;;;16.37;5.40;;;;;;;20.82;43.59;101415.98;2361214;73;51288;-79
2024/03/20 06:33:14;;;;;;;;;;;;;;;20.81;43.75;101407.60;2343476;73;51590;-81
2024/03/20 06:36:16;;;;;;;17.02;5.33;;;;;;;20.83;43.83;101414.48;2400639;73;51598;-81
2024/03/20 06:39:18;;;;;;;23.57;5.60;;;;;;;20.86;43.95;101420.84;2381025;73;50984;-80
2024/03/20 06:42:23;;;;;;;16.50;4.85;;;;;;;20.85;44.35;101416.97;2418027;73;50384;-79
2024/03/20 06:45:31;;;;;;;18.75;5.12;;;;;;;20.89;44.10;101418.30;2382418;73;50782;-80
2024/03/20 06:48:29;;;;;;;22.95;5.08;;;;;;;20.88;44.33;101414.78;2382453;73;22365;-81
2024/03/20 06:51:35;;;;;;;20.08;5.28;;;;;;;20.91;44.66;101418.96;2418322;73;51425;-80
2024/03/20 06:54:35;;;;;;;17.70;4.78;;;;;;;20.92;45.37;101419.27;2382470;73;22760;-81
2024/03/20 06:57:38;;;;;;;17.10;5.72;;;;;;;20.94;45.13;101425.32;2418011;73;51571;-80
2024/03/20 07:00:46;;;;;;;18.85;5.75;;;;;;;20.93;45.03;101418.25;2381566;73;50720;-81
2024/03/20 07:03:46;;;;;;;19.60;6.25;;;;;;;20.91;44.90;101413.58;2357086;73;22971;-81
2024/03/20 07:06:49;;;;;;;15.68;6.75;;;;;;;20.91;44.17;101413.58;2418113;73;50568;-81
2024/03/20 07:09:51;;;;;;;19.50;6.37;;;;;;;20.92;44.01;101410.37;2418109;73;50278;-83
2024/03/20 07:12:54;;;;;;;17.98;5.87;;;;;;;20.92;44.02;101412.55;2354342;73;50059;-80
2024/03/20 07:15:56;;;;;;;21.23;6.30;;;;;;;20.93;43.86;101410.17;2354964;73;50299;-80
2024/03/20 07:18:58;;;;;;;20.45;6.58;;;;;;;20.94;43.88;101413.73;2417784;73;50737;-80
2024/03/20 07:22:01;;;;;;;19.73;6.17;;;;;;;20.94;43.81;101409.17;2381093;73;50954;-80
2024/03/20 07:25:05;;;;;;;12.10;5.92;;;;;;;20.94;43.85;101410.52;2417864;73;50690;-80
2024/03/20 07:28:07;;;;;;;20.10;5.85;;;;;;;20.94;43.95;101410.52;2354885;73;51004;-80
2024/03/20 07:31:09;;;;;;;19.05;6.25;;;;;;;20.95;44.28;101411.35;2381059;73;50090;-80
2024/03/20 07:34:11;;;;;;;22.90;6.45;;;;;;;20.94;44.06;101409.17;2381297;73;50423;-80
2024/03/20 07:37:14;;;;;;;19.50;5.60;;;;;;;20.95;44.02;101413.53;2417709;73;50864;-82
2024/03/20 07:40:16;;;;;;;17.95;5.78;;;;;;;20.95;44.00;101418.91;2381137;73;51585;-80
2024/03/20 07:43:18;;;;;;;21.52;6.10;;;;;;;20.95;43.99;101413.53;2381166;73;50524;-80
2024/03/20 07:46:20;;;;;;;18.57;5.15;;;;;;;20.96;43.93;101424.64;2353848;73;50117;-80
2024/03/20 07:49:23;;;;;;;15.58;5.83;;;;;;;20.95;43.86;101417.56;2381336;73;51851;-80
2024/03/20 07:52:25;;;;;;;23.85;6.20;;;;;;;20.95;43.85;101419.42;2381192;73;51826;-80
2024/03/20 07:55:27;;;;;;;16.60;5.35;;;;;;;20.97;43.93;101428.16;2380873;73;52490;-79
2024/03/20 07:58:29;;;;;;;18.05;5.78;;;;;;;20.96;44.02;101418.39;2417945;73;51519;-79
2024/03/20 08:01:32;;;;;;;15.72;5.67;;;;;;;20.97;44.07;101427.64;2386549;73;51613;-80
2024/03/20 08:04:38;;;;;;;18.62;5.60;;;;;;;20.98;44.03;101428.48;2381865;74;51513;-79
2024/03/20 08:07:38;;;;;;;13.22;5.42;;;;;;;20.97;43.98;101420.92;2344561;74;22400;-80
2024/03/20 08:10:40;;;;;;;24.18;5.85;;;;;;;20.98;43.95;101429.82;2344171;74;49566;-80
2024/03/20 08:13:43;;;;;;;13.08;5.70;;;;;;;20.99;43.93;101431.00;2381977;74;50933;-80
2024/03/20 08:16:45;;;;;;;14.68;5.40;;;;;;;20.98;43.89;101436.55;2381928;74;50973;-79
2024/03/20 08:19:47;;;;;;;17.45;5.65;;;;;;;20.99;43.80;101435.03;2344098;74;50057;-80
2024/03/20 08:22:49;;;;;;;12.93;6.05;;;;;;;20.99;43.77;101433.69;2381975;74;50761;-80
2024/03/20 08:25:55;;;;;;;9.58;5.10;;;;;;;20.99;43.75;101432.83;2344265;74;51049;-79
2024/03/20 08:28:56;;;;;;;11.85;5.87;;;;;;;20.98;43.73;101438.72;2344785;74;22762;-80
2024/03/20 08:31:58;;;;;;;13.45;5.28;;;;;;;20.99;43.65;101435.03;2343977;74;50266;-80
2024/03/20 08:35:01;;;;;;;11.18;5.70;;;;;;;21.00;43.65;101435.34;2344128;74;49554;-79
2024/03/20 08:38:06;;;;;;;14.10;5.65;;;;;;;21.01;43.63;101441.05;2382159;74;51399;-79
2024/03/20 08:41:08;;;;;;;9.55;5.75;;;;;;;21.02;43.53;101445.43;2319171;74;22364;-79
2024/03/20 08:44:10;;;;;;;14.47;5.45;;;;;;;21.04;43.42;101442.55;2343694;74;50030;-79
2024/03/20 08:47:12;;;;;;;12.35;6.50;;;;;;;21.05;43.29;101436.99;2381821;74;51190;-80
2024/03/20 08:50:15;;;;;;;10.38;6.08;;;;;;;21.05;42.76;101431.61;2381928;74;50602;-80
2024/03/20 08:53:17;;;;;;;11.15;6.10;;;;;;;21.07;42.27;101439.52;2381795;74;51556;-79
2024/03/20 08:56:20;;;;;;;10.50;6.42;;;;;;;21.07;42.41;101436.31;2381794;74;50724;-78
2024/03/20 08:59:22;;;;;;;18.70;5.53;;;;;;;21.10;42.32;101437.29;2344338;74;49645;-78
2024/03/20 09:02:25;;;;;;;10.50;5.70;;;;;;;21.09;42.42;101442.36;2344371;74;50743;-80
2024/03/20 09:05:27;;;;;;;13.83;5.53;;;;;;;21.10;42.30;101444.02;2382435;74;51609;-79
2024/03/20 09:08:29;;;;;;;10.45;5.47;;;;;;;21.12;42.34;101434.91;2317098;74;50055;-79
2024/03/20 09:11:31;;;;;;;9.83;5.25;;;;;;;21.12;42.33;101434.43;2382133;73;51506;-80
2024/03/20 09:14:36;;;;;;;10.68;5.20;;;;;;;21.10;42.33;101427.88;2344250;74;53767;-79
2024/03/20 09:17:38;;;;;;;11.25;5.40;;;;;;;21.13;42.59;101429.87;2344432;74;50761;-79
2024/03/20 09:20:41;;;;;;;8.75;5.40;;;;;;;21.13;42.40;101432.05;2382093;74;51546;-79
2024/03/20 09:23:43;;;;;;;12.10;5.30;;;;;;;21.13;42.48;101444.16;2343909;74;50243;-80
2024/03/20 09:26:46;;;;;;;11.12;5.20;;;;;;;21.14;42.42;101438.27;2344199;74;50005;-80
2024/03/20 09:29:48;;;;;;;10.70;5.12;;;;;;;21.15;42.49;101438.61;2381781;74;51539;-80
2024/03/20 09:32:50;;;;;;;11.97;4.95;;;;;;;21.15;42.34;101426.50;2344107;74;50093;-80
2024/03/20 09:35:53;;;;;;;10.75;4.78;;;;;;;21.18;42.39;101430.17;2381901;74;50407;-80
2024/03/20 09:38:57;;;;;;;11.85;5.45;;;;;;;21.18;42.39;101421.58;2344660;74;50905;-79
2024/03/20 09:41:59;;;;;;;8.25;5.03;;;;;;;21.20;42.46;101424.11;2382072;73;51567;-79
2024/03/20 09:45:02;;;;;;;10.38;5.20;;;;;;;21.21;42.40;101425.77;2382060;74;50295;-79
2024/03/20 09:48:04;;;;;;;8.73;4.70;;;;;;;21.22;42.51;101420.70;2344035;74;49661;-80
2024/03/20 09:51:07;;;;;;;6.35;4.35;;;;;;;21.23;42.50;101413.80;2381939;74;51412;-79
2024/03/20 09:54:09;;;;;;;12.20;4.97;;;;;;;21.25;42.27;101406.91;2343952;74;50805;-79
2024/03/20 09:57:14;;;;;;;9.75;4.80;;;;;;;21.25;42.34;101415.81;2343471;74;50130;-79
2024/03/20 10:00:17;;;;;;;;;;;;;;;21.26;42.35;101408.56;2347024;74;51492;-79
2024/03/20 10:03:19;;;;;;;8.43;4.67;;;;;;;21.27;42.34;101410.22;2381969;74;51538;-80
2024/03/20 10:06:26;;;;;;;9.38;4.20;;;;;;;21.27;42.34;101410.22;2344160;74;51141;-79
2024/03/20 10:09:29;;;;;;;9.90;4.65;;;;;;;21.27;42.41;101405.70;2381913;74;51560;-79
2024/03/20 10:12:31;;;;;;;10.23;5.03;;;;;;;21.29;42.27;101410.88;2343758;74;49564;-79
2024/03/20 10:15:33;;;;;;;9.10;4.45;;;;;;;21.30;42.25;101414.75;2381798;74;50719;-80
2024/03/20 10:18:36;;;;;;;7.40;4.30;;;;;;;21.31;42.32;101403.47;2381914;73;51464;-79
2024/03/20 10:21:38;;;;;;;7.97;4.55;;;;;;;21.32;42.32;101399.74;2316383;74;50089;-79
2024/03/20 10:24:42;;;;;;;10.25;5.00;;;;;;;21.33;42.36;101394.70;2344067;74;50941;-80
2024/03/20 10:27:46;;;;;;;10.78;4.15;;;;;;;21.35;42.36;101394.02;2344373;74;51827;-80
2024/03/20 10:30:51;;;;;;;6.03;4.03;;;;;;;21.36;42.32;101393.50;2343342;74;51835;-79
2024/03/20 10:33:53;;;;;;;9.25;4.95;;;;;;;21.37;42.38;101389.27;2382051;74;51414;-79
2024/03/20 10:36:56;;;;;;;6.40;3.83;;;;;;;21.38;42.26;101387.44;2381797;74;50388;-79
2024/03/20 10:39:59;;;;;;;7.65;4.33;;;;;;;21.39;42.35;101383.22;2344442;74;50488;-79
2024/03/20 10:43:02;;;;;;;8.60;4.53;;;;;;;21.38;42.45;101382.91;2381800;74;50686;-80
2024/03/20 10:46:06;;;;;;;6.20;4.30;;;;;;;21.40;42.35;101381.36;2343746;74;50091;-80
2024/03/20 10:49:09;;;;;;;6.80;4.22;;;;;;;21.40;42.36;101383.56;2381741;73;51501;-79
2024/03/20 10:52:14;;;;;;;9.18;4.20;;;;;;;21.42;42.36;101374.77;2381779;74;52416;-80
2024/03/20 10:55:16;;;;;;;7.40;4.42;;;;;;;21.44;42.31;101370.56;2381936;74;22219;-79
2024/03/20 10:58:19;;;;;;;7.60;4.17;;;;;;;21.46;42.35;101371.22;2382031;74;50066;-79
2024/03/20 11:01:21;;;;;;;9.48;4.25;;;;;;;21.48;42.26;101370.53;2381863;74;51510;-80
2024/03/20 11:04:37;;;;;;;5.90;3.80;;;;;;;21.47;42.32;101368.84;2381588;74;51786;-80
2024/03/20 11:07:41;;;;;;;4.78;3.67;;;;;;;21.45;42.33;101359.63;2381821;74;50632;-80
2024/03/20 11:10:47;;;;;;;8.33;4.22;;;;;;;21.46;42.41;101358.59;2317068;74;49887;-80
2024/03/20 11:13:49;;;;;;;6.78;4.17;;;;;;;21.47;42.34;101357.55;2381901;74;50344;-80
2024/03/20 11:16:53;;;;;;;6.22;3.90;;;;;;;21.46;42.34;101355.89;2343720;74;51441;-79
2024/03/20 11:19:56;;;;;;;5.75;3.80;;;;;;;21.47;42.34;101357.55;2317831;74;50939;-82
2024/03/20 11:22:58;;;;;;;8.33;3.62;;;;;;;21.50;42.38;101359.04;2317792;74;51976;-79
2024/03/20 11:26:01;;;;;;;7.83;4.17;;;;;;;21.49;42.31;101360.91;2381730;74;50459;-80
2024/03/20 11:29:03;;;;;;;5.65;3.77;;;;;;;21.49;42.29;101360.91;2381750;74;50690;-79
2024/03/20 11:32:05;;;;;;;6.17;3.75;;;;;;;21.47;42.34;101352.17;2381792;73;50562;-79
2024/03/20 11:35:11;;;;;;;6.65;3.75;;;;;;;21.48;42.32;101351.69;2343228;74;50899;-80
2024/03/20 11:38:15;;;;;;;;;;;;;;;21.47;42.29;101353.52;2383559;74;50739;-79
2024/03/20 11:41:17;;;;;;;6.25;3.80;;;;;;;21.47;42.36;101344.61;2345121;74;22336;-79
2024/03/20 11:44:19;;;;;;;12.10;8.03;;;;;;;21.46;42.25;101361.80;2343874;74;51100;-81
2024/03/20 11:47:21;;;;;;;13.32;9.28;;;;;;;21.31;38.90;101356.36;2381648;74;50733;-80
2024/03/20 11:50:24;;;;;;;20.48;7.12;;;;;;;21.26;39.66;101351.52;2381626;73;50338;-80
2024/03/20 11:53:26;;;;;;;22.62;8.20;;;;;;;21.28;39.85;101349.48;2316478;74;49539;-79
2024/03/20 11:56:28;;;;;;;21.10;7.15;;;;;;;21.30;39.90;101338.55;2381709;74;50294;-81
2024/03/20 11:59:30;;;;;;;15.45;6.25;;;;;;;21.32;40.01;101339.17;2381752;74;50899;-79
2024/03/20 12:02:34;;;;;;;19.98;6.00;;;;;;;21.33;40.24;101330.61;2381623;74;50333;-79
2024/03/20 12:05:36;;;;;;;15.30;5.75;;;;;;;21.35;40.52;101333.45;2381598;74;24767;-80
2024/03/20 12:08:39;;;;;;;12.93;5.55;;;;;;;21.36;40.75;101327.03;2316205;74;50922;-80
2024/03/20 12:11:42;;;;;;;20.97;4.85;;;;;;;21.38;40.85;101325.03;2344401;74;50428;-80
2024/03/20 12:14:44;;;;;;;10.95;4.97;;;;;;;21.40;40.99;101311.36;2343770;74;49597;-80
2024/03/20 12:17:46;;;;;;;11.55;5.10;;;;;;;21.41;41.08;101307.16;2344010;74;50112;-80
2024/03/20 12:20:49;;;;;;;15.53;4.85;;;;;;;21.42;41.11;101308.81;2381970;74;50699;-79
2024/03/20 12:23:51;;;;;;;10.05;5.15;;;;;;;21.45;41.22;101304.91;2382043;74;50694;-79
2024/03/20 12:26:54;;;;;;;13.35;4.97;;;;;;;21.45;41.23;101305.77;2382062;74;51477;-80
2024/03/20 12:29:56;;;;;;;13.25;4.35;;;;;;;21.46;41.29;101308.78;2382267;74;52405;-80
2024/03/20 12:32:58;;;;;;;11.53;4.58;;;;;;;21.47;41.52;101299.66;2344101;74;50117;-80
2024/03/20 12:36:01;;;;;;;12.55;4.78;;;;;;;21.53;41.51;101301.63;2395630;72;50714;-81
2024/03/20 12:39:05;;;;;;;8.53;4.40;;;;;;;21.56;41.49;101298.25;2430321;72;51748;-80
2024/03/20 12:42:07;;;;;;;11.48;4.55;;;;;;;21.59;41.56;101295.17;2345098;72;49657;-79
2024/03/20 12:45:14;;;;;;;10.13;4.42;;;;;;;21.59;41.44;101297.35;2409822;72;50588;-79
2024/03/20 12:48:14;;;;;;;9.23;4.43;;;;;;;21.61;41.43;101289.09;2384193;72;22286;-78
2024/03/20 12:51:20;;;;;;;8.25;4.15;;;;;;;21.61;41.46;101289.09;2429008;72;50708;-80
2024/03/20 12:54:25;;;;;;;6.90;4.50;;;;;;;21.63;41.34;101285.68;2458222;72;50789;-79
2024/03/20 12:57:27;;;;;;;9.15;4.37;;;;;;;21.62;41.34;101278.12;2413864;73;22318;-78
2024/03/20 13:00:29;;;;;;;9.38;4.45;;;;;;;21.62;41.44;101286.20;2334963;73;50252;-80
2024/03/20 13:03:32;;;;;;;6.83;4.28;;;;;;;21.61;41.33;101285.88;2404901;73;50412;-79
2024/03/20 13:06:34;;;;;;;7.65;4.58;;;;;;;21.60;41.37;101282.84;2384793;72;51015;-79
2024/03/20 13:09:36;;;;;;;8.35;4.72;;;;;;;21.62;41.33;101277.29;2383665;72;50404;-80
2024/03/20 13:12:38;;;;;;;8.90;4.10;;;;;;;21.60;41.42;101272.59;2404661;73;50291;-79
2024/03/20 13:15:40;;;;;;;6.30;4.12;;;;;;;21.61;41.41;101267.55;2385568;73;50975;-80
2024/03/20 13:18:48;;;;;;;7.97;3.98;;;;;;;21.62;41.44;101271.91;2386414;73;50793;-81
2024/03/20 13:21:48;;;;;;;5.65;3.90;;;;;;;21.63;41.48;101269.52;2403687;73;23135;-80
2024/03/20 13:24:51;;;;;;;6.53;4.03;;;;;;;21.64;41.37;101272.55;2345080;74;51306;-81
2024/03/20 13:27:53;;;;;;;8.53;3.87;;;;;;;21.63;41.51;101269.03;2404066;72;50368;-81
2024/03/20 13:30:55;;;;;;;5.80;3.80;;;;;;;21.61;41.56;101276.98;2385889;73;50233;-81
2024/03/20 13:34:00;;;;;;;4.80;3.95;;;;;;;21.60;41.45;101263.17;2406430;73;51727;-82
2024/03/20 13:37:02;;;;;;;8.45;3.80;;;;;;;21.61;41.69;101272.94;2433937;72;22377;-82
2024/03/20 13:41:01;;;;;;;10.13;4.47;;;;;;;21.59;41.57;101260.99;2391150;72;50705;-80
2024/03/20 13:46:20;;;;;;;5.90;3.90;;;;;;;21.60;41.60;101264.52;2410508;73;22309;-81
2024/03/20 13:49:22;;;;;;;7.45;3.67;;;;;;;21.60;41.62;101259.12;2441335;72;50659;-82
2024/03/20 13:52:25;;;;;;;6.95;3.80;;;;;;;21.60;41.77;101255.92;2440111;72;51575;-82
2024/03/20 13:55:28;;;;;;;9.33;3.77;;;;;;;21.60;41.71;101253.74;2346871;72;49816;-82
2024/03/20 13:58:30;;;;;;;9.63;3.87;;;;;;;21.60;41.78;101256.44;2382698;73;50243;-82
2024/03/20 14:01:38;;;;;;;5.62;3.62;;;;;;;21.60;41.71;101249.19;2382573;74;50542;-82
2024/03/20 14:04:36;;;;;;;8.53;4.10;;;;;;;21.61;41.93;101250.05;2351959;72;22395;-81
2024/03/20 14:07:38;;;;;;;5.20;3.58;;;;;;;21.62;41.92;101247.14;2345122;73;51433;-81
2024/03/20 14:10:40;;;;;;;6.50;3.40;;;;;;;21.63;41.94;101250.18;2295121;75;50941;-82
2024/03/20 14:13:43;;;;;;;5.50;3.80;;;;;;;21.64;41.82;101246.97;2395236;73;51468;-80